Time;durP1;ratioP1;P1;durP2;ratioP2;P2;SDS_P1;SDS_P2;PMS_P1;PMS_P2;Temp;Humidity;BMP_temperature;BMP_pressure;BME280_temperature;BME280_humidity;BME280_pressure;Samples;Min_cycle;Max_cycle;Signal;HPM_P1;HPM_P2
2022/02/24 00:02:25;;;;;;;35.20;12.85;;;;;;;;;;4916438;29;20063;-63
2022/02/24 00:05:01;;;;;;;26.88;12.13;;;;;;;;;;4917381;29;20064;-63
2022/02/24 00:07:33;;;;;;;26.13;11.13;;;;;;;;;;4932467;29;20059;-63
2022/02/24 00:10:08;;;;;;;27.15;11.48;;;;;;;;;;4932431;29;20050;-63
2022/02/24 00:12:40;;;;;;;24.33;11.35;;;;;;;;;;4901482;29;20060;-63
2022/02/24 00:15:17;;;;;;;28.73;11.38;;;;;;;;;;4916886;29;20456;-63
2022/02/24 00:17:52;;;;;;;27.95;10.73;;;;;;;;;;4932352;29;20056;-63
2022/02/24 00:20:23;;;;;;;23.45;10.20;;;;;;;;;;4932111;29;20516;-63
2022/02/24 00:22:53;;;;;;;31.35;11.57;;;;;;;;;;4932252;29;20067;-63
2022/02/24 00:25:26;;;;;;;26.33;12.82;;;;;;;;;;4946829;28;20051;-63
2022/02/24 00:28:01;;;;;;;32.20;12.30;;;;;;;;;;4951341;29;20051;-63
2022/02/24 00:30:31;;;;;;;29.67;10.98;;;;;;;;;;4899711;29;20055;-63
2022/02/24 00:33:02;;;;;;;;;;;;;;;;;;4880180;29;20053;-63
2022/02/24 00:35:32;;;;;;;29.05;11.40;;;;;;;;;;4916762;29;20282;-63
2022/02/24 00:38:07;;;;;;;31.05;11.73;;;;;;;;;;4931872;29;20501;-63
2022/02/24 00:40:41;;;;;;;31.20;11.98;;;;;;;;;;4893535;29;20061;-63
2022/02/24 00:43:14;;;;;;;25.55;10.55;;;;;;;;;;4875179;29;20079;-63
2022/02/24 00:45:44;;;;;;;27.33;11.43;;;;;;;;;;4875160;29;20060;-63
2022/02/24 00:48:17;;;;;;;27.48;11.63;;;;;;;;;;4874745;29;20061;-63
2022/02/24 00:50:49;;;;;;;34.00;12.13;;;;;;;;;;4859715;29;20165;-63
2022/02/24 00:53:22;;;;;;;37.83;13.02;;;;;;;;;;4875454;29;20072;-63
2022/02/24 00:55:52;;;;;;;28.10;10.98;;;;;;;;;;4874951;29;20057;-63
2022/02/24 00:58:26;;;;;;;23.52;10.85;;;;;;;;;;4875027;29;20053;-63
2022/02/24 01:01:01;;;;;;;29.27;11.60;;;;;;;;;;4856442;29;20162;-63
2022/02/24 01:03:32;;;;;;;27.27;12.00;;;;;;;;;;4856490;29;20132;-63
2022/02/24 01:06:04;;;;;;;30.20;12.00;;;;;;;;;;4843911;29;20498;-63
2022/02/24 01:08:39;;;;;;;33.08;12.10;;;;;;;;;;4875144;29;20071;-63
2022/02/24 01:11:12;;;;;;;24.95;11.23;;;;;;;;;;4900931;29;20052;-63
2022/02/24 01:13:46;;;;;;;26.55;10.85;;;;;;;;;;4912333;29;20063;-63
2022/02/24 01:16:17;;;;;;;30.60;11.38;;;;;;;;;;4893451;29;20052;-63
2022/02/24 01:18:50;;;;;;;23.95;11.35;;;;;;;;;;4912283;29;20052;-63
2022/02/24 01:21:24;;;;;;;28.15;11.68;;;;;;;;;;4910782;29;20056;-63
2022/02/24 01:23:58;;;;;;;27.05;10.77;;;;;;;;;;4931390;29;20059;-62
2022/02/24 01:26:28;;;;;;;23.60;11.10;;;;;;;;;;4899744;29;20063;-63
2022/02/24 01:29:00;;;;;;;;;;;;;;;;;;4931664;29;20054;-65
2022/02/24 01:31:33;;;;;;;26.70;10.55;;;;;;;;;;4946594;29;19922;-64
2022/02/24 01:34:07;;;;;;;23.10;10.23;;;;;;;;;;4931281;29;20074;-64
2022/02/24 01:36:37;;;;;;;25.70;11.30;;;;;;;;;;4915343;29;20051;-64
2022/02/24 01:39:12;;;;;;;25.23;10.68;;;;;;;;;;4917101;29;20055;-64
2022/02/24 01:41:44;;;;;;;20.10;10.45;;;;;;;;;;4912020;29;20654;-64
2022/02/24 01:44:19;;;;;;;26.98;11.20;;;;;;;;;;4911935;29;20052;-65
2022/02/24 01:46:52;;;;;;;26.88;11.65;;;;;;;;;;4889892;29;20049;-65
2022/02/24 01:49:26;;;;;;;27.45;11.18;;;;;;;;;;4859519;29;20521;-65
2022/02/24 01:52:05;;;;;;;28.42;11.13;;;;;;;;;;4860039;29;20060;-64
2022/02/24 01:54:39;;;;;;;28.58;11.70;;;;;;;;;;4874650;29;20061;-64
2022/02/24 01:57:10;;;;;;;29.23;11.48;;;;;;;;;;4874631;29;20053;-64
2022/02/24 01:59:42;;;;;;;24.85;11.05;;;;;;;;;;4874506;29;20065;-65
2022/02/24 02:02:17;;;;;;;22.15;10.63;;;;;;;;;;4899310;29;20060;-64
2022/02/24 02:04:50;;;;;;;26.70;11.40;;;;;;;;;;4911468;29;20414;-65
2022/02/24 02:07:22;;;;;;;31.30;11.45;;;;;;;;;;4912086;29;20059;-65
2022/02/24 02:10:00;;;;;;;23.35;11.32;;;;;;;;;;4911922;29;20436;-64
2022/02/24 02:12:31;;;;;;;31.88;11.48;;;;;;;;;;4930705;29;20624;-64
2022/02/24 02:15:03;;;;;;;29.80;12.48;;;;;;;;;;4930682;29;20546;-64
2022/02/24 02:17:33;;;;;;;30.27;11.95;;;;;;;;;;4946090;29;20404;-64
2022/02/24 02:20:06;;;;;;;28.08;11.75;;;;;;;;;;4949889;29;20051;-64
2022/02/24 02:22:45;;;;;;;22.50;12.10;;;;;;;;;;4930809;29;20060;-64
2022/02/24 02:25:20;;;;;;;26.45;11.55;;;;;;;;;;4899151;29;20062;-64
2022/02/24 02:27:52;;;;;;;28.45;12.68;;;;;;;;;;4933399;29;20079;-64
2022/02/24 02:30:23;;;;;;;;;;;;;;;;;;4903105;29;20096;-64
2022/02/24 02:32:55;;;;;;;25.40;11.73;;;;;;;;;;4934311;29;19922;-64
2022/02/24 02:35:26;;;;;;;32.72;12.25;;;;;;;;;;4918252;29;20056;-64
2022/02/24 02:37:57;;;;;;;28.35;11.65;;;;;;;;;;4934043;29;20063;-64
2022/02/24 02:40:28;;;;;;;28.92;12.25;;;;;;;;;;4918586;29;20059;-65
2022/02/24 02:43:03;;;;;;;26.38;11.85;;;;;;;;;;4947638;29;20059;-65
2022/02/24 02:45:38;;;;;;;24.90;10.93;;;;;;;;;;4914808;29;20063;-65
2022/02/24 02:48:08;;;;;;;24.45;11.02;;;;;;;;;;4868076;29;20480;-65
2022/02/24 02:50:40;;;;;;;23.70;11.48;;;;;;;;;;4928305;29;20047;-65
2022/02/24 02:53:11;;;;;;;28.17;10.85;;;;;;;;;;4949251;29;20051;-65
2022/02/24 02:55:43;;;;;;;26.38;10.40;;;;;;;;;;4933503;29;20062;-64
2022/02/24 02:58:13;;;;;;;21.50;10.43;;;;;;;;;;4933633;29;20051;-65
2022/02/24 03:00:49;;;;;;;23.20;10.93;;;;;;;;;;4962481;28;20081;-65
2022/02/24 03:03:24;;;;;;;23.30;10.18;;;;;;;;;;4939681;28;20055;-65
2022/02/24 03:05:56;;;;;;;22.75;10.40;;;;;;;;;;4971973;28;20553;-65
2022/02/24 03:08:26;;;;;;;24.67;10.50;;;;;;;;;;4972071;28;20046;-64
2022/02/24 03:10:59;;;;;;;22.10;10.18;;;;;;;;;;4972106;28;20207;-64
2022/02/24 03:13:34;;;;;;;35.80;10.65;;;;;;;;;;4972003;28;20543;-65
2022/02/24 03:16:07;;;;;;;20.67;11.13;;;;;;;;;;4991333;28;20061;-65
2022/02/24 03:18:37;;;;;;;27.75;11.38;;;;;;;;;;4991042;28;20062;-65
2022/02/24 03:21:11;;;;;;;25.08;10.95;;;;;;;;;;4991206;28;20054;-64
2022/02/24 03:23:43;;;;;;;24.88;10.10;;;;;;;;;;4975286;28;20574;-65
2022/02/24 03:26:18;;;;;;;29.50;10.85;;;;;;;;;;4991314;28;20830;-65
2022/02/24 03:28:48;;;;;;;26.52;10.43;;;;;;;;;;4958441;28;20514;-65
2022/02/24 03:31:20;;;;;;;28.83;10.95;;;;;;;;;;5006500;28;20058;-65
2022/02/24 03:33:56;;;;;;;25.45;11.10;;;;;;;;;;4971330;28;20055;-64
2022/02/24 03:36:27;;;;;;;28.90;12.02;;;;;;;;;;4939726;28;20051;-65
2022/02/24 03:38:58;;;;;;;29.60;11.23;;;;;;;;;;4970321;28;20063;-65
2022/02/24 03:41:31;;;;;;;29.30;12.10;;;;;;;;;;4971461;28;20467;-65
2022/02/24 03:44:05;;;;;;;23.55;10.73;;;;;;;;;;4971315;28;20051;-65
2022/02/24 03:46:38;;;;;;;25.38;11.25;;;;;;;;;;4925588;28;20055;-65
2022/02/24 03:49:08;;;;;;;26.70;10.95;;;;;;;;;;4971039;28;20062;-65
2022/02/24 03:51:45;;;;;;;25.88;10.63;;;;;;;;;;4971381;28;20050;-65
2022/02/24 03:54:18;;;;;;;28.00;11.05;;;;;;;;;;4971020;28;20094;-64
2022/02/24 03:56:52;;;;;;;22.90;10.57;;;;;;;;;;4936694;28;20055;-65
2022/02/24 03:59:22;;;;;;;21.00;11.25;;;;;;;;;;4919727;28;20062;-64
2022/02/24 04:01:53;;;;;;;22.35;11.05;;;;;;;;;;4951758;28;20055;-66
2022/02/24 04:04:26;;;;;;;26.38;11.02;;;;;;;;;;4956215;28;20050;-65
2022/02/24 04:06:56;;;;;;;24.40;10.75;;;;;;;;;;4939072;28;20059;-64
2022/02/24 04:09:27;;;;;;;30.42;10.68;;;;;;;;;;4939342;28;20047;-65
2022/02/24 04:11:59;;;;;;;21.67;10.07;;;;;;;;;;4971072;28;20051;-64
2022/02/24 04:14:32;;;;;;;24.58;11.73;;;;;;;;;;4970719;28;20072;-65
2022/02/24 04:17:04;;;;;;;30.02;11.85;;;;;;;;;;4935305;28;20050;-65
2022/02/24 04:19:33;;;;;;;29.35;11.15;;;;;;;;;;4951279;28;20055;-65
2022/02/24 04:22:07;;;;;;;24.25;10.00;;;;;;;;;;4951398;28;20412;-65
2022/02/24 04:24:38;;;;;;;26.83;10.45;;;;;;;;;;4951043;28;20051;-65
2022/02/24 04:27:13;;;;;;;24.50;10.43;;;;;;;;;;4935583;28;20055;-65
2022/02/24 04:29:43;;;;;;;23.73;10.52;;;;;;;;;;4950995;28;20059;-65
2022/02/24 04:32:16;;;;;;;20.90;10.52;;;;;;;;;;4931782;29;20087;-65
2022/02/24 04:34:48;;;;;;;22.25;10.48;;;;;;;;;;4927177;29;20541;-64
2022/02/24 04:37:20;;;;;;;21.90;10.63;;;;;;;;;;4935764;29;20066;-65
2022/02/24 04:39:50;;;;;;;25.13;10.38;;;;;;;;;;4931600;29;20063;-65
2022/02/24 04:42:23;;;;;;;23.23;10.65;;;;;;;;;;4931739;29;20060;-65
2022/02/24 04:44:57;;;;;;;22.73;10.82;;;;;;;;;;4912213;29;20059;-65
2022/02/24 04:47:28;;;;;;;24.55;11.25;;;;;;;;;;4912824;29;20512;-65
2022/02/24 04:49:58;;;;;;;24.23;10.98;;;;;;;;;;4828409;29;20453;-65
2022/02/24 04:52:33;;;;;;;25.45;12.13;;;;;;;;;;4875520;29;20060;-65
2022/02/24 04:55:06;;;;;;;24.27;11.25;;;;;;;;;;4875341;29;20061;-65
2022/02/24 04:57:39;;;;;;;24.10;10.63;;;;;;;;;;4875070;29;20061;-65
2022/02/24 05:00:10;;;;;;;25.88;11.85;;;;;;;;;;4856511;29;20493;-65
2022/02/24 05:02:40;;;;;;;27.10;11.13;;;;;;;;;;4810950;29;20070;-65
2022/02/24 05:05:13;;;;;;;22.02;10.40;;;;;;;;;;4856471;29;20065;-65
2022/02/24 05:07:44;;;;;;;24.00;11.23;;;;;;;;;;4841413;29;20053;-65
2022/02/24 05:10:14;;;;;;;24.38;11.70;;;;;;;;;;4868076;29;20068;-64
2022/02/24 05:12:48;;;;;;;27.15;11.35;;;;;;;;;;4874938;29;20061;-64
2022/02/24 05:15:18;;;;;;;29.45;11.68;;;;;;;;;;4875250;29;20061;-65
2022/02/24 05:17:51;;;;;;;27.38;11.45;;;;;;;;;;4871816;29;20067;-65
2022/02/24 05:20:26;;;;;;;22.50;10.30;;;;;;;;;;4877554;29;20052;-65
2022/02/24 05:22:58;;;;;;;25.85;11.65;;;;;;;;;;4917934;29;20052;-65
2022/02/24 05:25:34;;;;;;;31.40;12.15;;;;;;;;;;4915629;29;20063;-65
2022/02/24 05:28:07;;;;;;;23.58;10.35;;;;;;;;;;4957722;28;20075;-65
2022/02/24 05:30:38;;;;;;;24.38;11.05;;;;;;;;;;4969790;28;20055;-65
2022/02/24 05:33:15;;;;;;;29.05;10.98;;;;;;;;;;4969689;28;20054;-65
2022/02/24 05:35:48;;;;;;;21.73;10.55;;;;;;;;;;4923167;28;20051;-65
2022/02/24 05:38:22;;;;;;;19.80;10.10;;;;;;;;;;4978864;28;20058;-65
2022/02/24 05:40:52;;;;;;;25.58;11.60;;;;;;;;;;4989073;28;20050;-65
2022/02/24 05:43:23;;;;;;;23.90;11.05;;;;;;;;;;4940869;28;20065;-65
2022/02/24 05:45:56;;;;;;;25.63;11.35;;;;;;;;;;4956929;28;20489;-65
2022/02/24 05:48:28;;;;;;;21.33;10.88;;;;;;;;;;4988801;28;20058;-64
2022/02/24 05:50:58;;;;;;;26.30;10.90;;;;;;;;;;4989122;28;20061;-64
2022/02/24 05:53:30;;;;;;;23.25;10.45;;;;;;;;;;4949708;29;20066;-65
2022/02/24 05:56:04;;;;;;;22.65;10.38;;;;;;;;;;4950492;29;20067;-65
2022/02/24 05:58:35;;;;;;;22.77;10.38;;;;;;;;;;4950193;29;20066;-65
2022/02/24 06:01:05;;;;;;;21.92;11.13;;;;;;;;;;4950493;28;20043;-65
2022/02/24 06:03:36;;;;;;;28.20;9.40;;;;;;;;;;4953874;29;20055;-65
2022/02/24 06:06:09;;;;;;;21.95;10.13;;;;;;;;;;4937857;29;20051;-65
2022/02/24 06:08:39;;;;;;;22.65;9.93;;;;;;;;;;4953772;29;20055;-65
2022/02/24 06:11:13;;;;;;;22.83;10.32;;;;;;;;;;4953871;28;20064;-65
2022/02/24 06:13:43;;;;;;;21.42;10.63;;;;;;;;;;4953737;29;20459;-65
2022/02/24 06:16:13;;;;;;;23.85;10.35;;;;;;;;;;4896550;28;20060;-65
2022/02/24 06:18:45;;;;;;;24.85;11.25;;;;;;;;;;4957112;28;20074;-65
2022/02/24 06:21:18;;;;;;;23.13;10.52;;;;;;;;;;4973111;28;20051;-65
2022/02/24 06:23:48;;;;;;;24.63;11.13;;;;;;;;;;4925150;28;20055;-65
2022/02/24 06:26:21;;;;;;;21.65;10.68;;;;;;;;;;4953324;28;20055;-65
2022/02/24 06:28:55;;;;;;;23.88;11.02;;;;;;;;;;4921426;28;20058;-64
2022/02/24 06:31:26;;;;;;;22.52;10.88;;;;;;;;;;4965978;28;20047;-64
2022/02/24 06:33:58;;;;;;;23.83;10.65;;;;;;;;;;4972695;28;20518;-65
2022/02/24 06:36:30;;;;;;;;;;;;;;;;;;4956759;28;20062;-65
2022/02/24 06:39:09;;;;;;;24.33;10.98;;;;;;;;;;4972897;28;19922;-65
2022/02/24 06:41:41;;;;;;;23.35;10.43;;;;;;;;;;4972649;28;20050;-65
2022/02/24 06:44:11;;;;;;;24.00;11.55;;;;;;;;;;4972310;28;20055;-65
2022/02/24 06:46:44;;;;;;;25.35;11.60;;;;;;;;;;4972386;28;20160;-65
2022/02/24 06:49:15;;;;;;;23.85;11.32;;;;;;;;;;4972445;28;20416;-64
2022/02/24 06:51:46;;;;;;;22.40;11.20;;;;;;;;;;4933794;29;20063;-65
2022/02/24 06:54:17;;;;;;;27.13;12.10;;;;;;;;;;4933603;29;20051;-65
2022/02/24 06:56:51;;;;;;;24.30;12.02;;;;;;;;;;4887897;29;20063;-65
2022/02/24 06:59:23;;;;;;;26.08;11.95;;;;;;;;;;4933717;29;20056;-65
2022/02/24 07:01:54;;;;;;;25.67;12.40;;;;;;;;;;4933892;29;20055;-65
2022/02/24 07:04:24;;;;;;;25.00;11.32;;;;;;;;;;4946585;29;20059;-65
2022/02/24 07:06:58;;;;;;;21.73;11.80;;;;;;;;;;4952685;29;20050;-65
2022/02/24 07:09:31;;;;;;;24.80;11.95;;;;;;;;;;4952727;29;20051;-66
2022/02/24 07:12:01;;;;;;;27.30;12.90;;;;;;;;;;4905089;28;20051;-65
2022/02/24 07:14:31;;;;;;;33.70;14.13;;;;;;;;;;4952562;29;20063;-64
2022/02/24 07:17:02;;;;;;;32.53;14.13;;;;;;;;;;4883868;29;20075;-65
2022/02/24 07:19:33;;;;;;;29.27;14.77;;;;;;;;;;4907164;29;20064;-65
2022/02/24 07:22:05;;;;;;;27.25;13.70;;;;;;;;;;4868776;29;20053;-65
2022/02/24 07:24:37;;;;;;;28.98;13.80;;;;;;;;;;4845872;29;20053;-64
2022/02/24 07:27:07;;;;;;;25.02;12.80;;;;;;;;;;4876764;29;20053;-65
2022/02/24 07:29:39;;;;;;;24.55;12.57;;;;;;;;;;4872104;29;20052;-65
2022/02/24 07:32:13;;;;;;;28.50;13.25;;;;;;;;;;4895310;29;20063;-65
2022/02/24 07:34:43;;;;;;;27.55;13.43;;;;;;;;;;4879471;29;20052;-65
2022/02/24 07:37:14;;;;;;;25.85;12.10;;;;;;;;;;4895122;29;20053;-64
2022/02/24 07:39:45;;;;;;;24.70;12.15;;;;;;;;;;4876378;29;20060;-65
2022/02/24 07:42:17;;;;;;;24.98;12.50;;;;;;;;;;4876491;29;20072;-65
2022/02/24 07:44:51;;;;;;;27.45;13.02;;;;;;;;;;4876533;29;20061;-65
2022/02/24 07:47:22;;;;;;;26.98;13.18;;;;;;;;;;4894857;29;20060;-65
2022/02/24 07:49:58;;;;;;;24.20;12.77;;;;;;;;;;4895360;29;20069;-65
2022/02/24 07:52:30;;;;;;;21.90;11.57;;;;;;;;;;4872332;29;20057;-65
2022/02/24 07:55:00;;;;;;;22.60;12.35;;;;;;;;;;4853985;29;20060;-65
2022/02/24 07:57:30;;;;;;;25.45;11.88;;;;;;;;;;4860632;29;20071;-65
2022/02/24 08:00:00;;;;;;;24.10;11.98;;;;;;;;;;4876208;29;20049;-65
2022/02/24 08:02:36;;;;;;;21.05;11.30;;;;;;;;;;4876497;29;20061;-66
2022/02/24 08:05:08;;;;;;;21.65;10.77;;;;;;;;;;4838584;29;20057;-65
2022/02/24 08:07:40;;;;;;;22.70;11.23;;;;;;;;;;4838871;29;20050;-65
2022/02/24 08:10:11;;;;;;;21.92;11.32;;;;;;;;;;4839051;29;20502;-65
2022/02/24 08:12:42;;;;;;;22.05;11.13;;;;;;;;;;4839126;29;20061;-65
2022/02/24 08:15:20;;;;;;;24.33;11.50;;;;;;;;;;4856923;29;20053;-65
2022/02/24 08:17:54;;;;;;;21.48;11.30;;;;;;;;;;4877955;29;20524;-65
2022/02/24 08:20:25;;;;;;;21.88;11.40;;;;;;;;;;4913431;29;20060;-65
2022/02/24 08:23:03;;;;;;;25.25;11.07;;;;;;;;;;4847909;29;20060;-65
2022/02/24 08:25:36;;;;;;;21.00;11.18;;;;;;;;;;4859843;29;20053;-65
2022/02/24 08:28:07;;;;;;;22.83;10.77;;;;;;;;;;4875451;29;20061;-66
2022/02/24 08:30:37;;;;;;;23.48;11.35;;;;;;;;;;4888616;29;20060;-65
2022/02/24 08:33:14;;;;;;;21.67;11.13;;;;;;;;;;4894248;29;20059;-65
2022/02/24 08:35:46;;;;;;;19.63;10.75;;;;;;;;;;4912587;29;20512;-66
2022/02/24 08:38:19;;;;;;;22.52;11.80;;;;;;;;;;4881652;29;20060;-65
2022/02/24 08:40:49;;;;;;;18.95;10.65;;;;;;;;;;4913058;29;20125;-65
2022/02/24 08:43:22;;;;;;;;;;;;;;;;;;4913467;29;20067;-65
2022/02/24 08:45:53;;;;;;;20.70;9.82;;;;;;;;;;4866114;29;19923;-65
2022/02/24 08:48:25;;;;;;;19.77;10.45;;;;;;;;;;4912719;29;20056;-65
2022/02/24 08:50:55;;;;;;;21.67;10.27;;;;;;;;;;4881726;29;20069;-65
2022/02/24 08:53:25;;;;;;;20.45;10.07;;;;;;;;;;4926258;29;20051;-65
2022/02/24 08:55:55;;;;;;;21.17;11.00;;;;;;;;;;4916517;29;20056;-65
2022/02/24 08:58:28;;;;;;;18.20;10.40;;;;;;;;;;4931831;29;20591;-65
2022/02/24 09:01:01;;;;;;;20.60;11.27;;;;;;;;;;4915877;29;20063;-65
2022/02/24 09:03:34;;;;;;;19.58;10.18;;;;;;;;;;4943959;29;20091;-65
2022/02/24 09:06:12;;;;;;;19.75;10.55;;;;;;;;;;4912334;29;20653;-65
2022/02/24 09:08:44;;;;;;;19.33;9.68;;;;;;;;;;4865856;29;20857;-65
2022/02/24 09:11:17;;;;;;;;;;;;;;;;;;4866467;29;20424;-65
2022/02/24 09:13:48;;;;;;;17.60;9.07;;;;;;;;;;4938260;28;19922;-65
2022/02/24 09:16:18;;;;;;;17.70;9.45;;;;;;;;;;4950604;28;20047;-65
2022/02/24 09:18:51;;;;;;;24.10;10.40;;;;;;;;;;4904400;28;20044;-65
2022/02/24 09:21:21;;;;;;;22.55;10.95;;;;;;;;;;4902630;28;20879;-65
2022/02/24 09:23:53;;;;;;;23.23;9.68;;;;;;;;;;4950412;28;20059;-65
2022/02/24 09:26:23;;;;;;;18.13;9.38;;;;;;;;;;4950594;28;20055;-65
2022/02/24 09:28:53;;;;;;;17.52;9.90;;;;;;;;;;4950544;28;20094;-64
2022/02/24 09:31:24;;;;;;;19.77;11.05;;;;;;;;;;4975463;28;20114;-66
2022/02/24 09:34:02;;;;;;;16.58;8.85;;;;;;;;;;4989185;28;20054;-65
2022/02/24 09:36:33;;;;;;;18.25;9.68;;;;;;;;;;4943504;28;20527;-66
2022/02/24 09:39:04;;;;;;;26.00;10.40;;;;;;;;;;4993302;28;20065;-66
2022/02/24 09:41:35;;;;;;;27.13;10.35;;;;;;;;;;4993227;28;20511;-65
2022/02/24 09:44:08;;;;;;;21.60;9.68;;;;;;;;;;4914473;28;20066;-65
2022/02/24 09:46:41;;;;;;;23.35;10.10;;;;;;;;;;4993035;28;20098;-65
2022/02/24 09:49:17;;;;;;;22.35;10.65;;;;;;;;;;4993033;28;20046;-65
2022/02/24 09:51:47;;;;;;;18.88;10.00;;;;;;;;;;4993091;28;20055;-65
2022/02/24 09:54:20;;;;;;;;;;;;;;;;;;4993464;28;20077;-65
2022/02/24 09:56:54;;;;;;;21.48;11.02;;;;;;;;;;4960673;28;20440;-65
2022/02/24 09:59:25;;;;;;;18.20;9.63;;;;;;;;;;4953797;28;20063;-65
2022/02/24 10:01:56;;;;;;;26.38;9.32;;;;;;;;;;4938169;29;20055;-65
2022/02/24 10:04:33;;;;;;;17.67;8.60;;;;;;;;;;4954059;29;20059;-65
2022/02/24 10:07:24;;;;;;;42.10;10.45;;;;;;;;;;4915554;29;20421;-65
2022/02/24 10:09:55;;;;;;;21.20;9.27;;;;;;;;;;4884139;29;20063;-65
2022/02/24 10:12:25;;;;;;;24.30;9.95;;;;;;;;;;4915747;29;20063;-65
2022/02/24 10:15:11;;;;;;;26.30;9.93;;;;;;;;;;4915649;29;20056;-65
2022/02/24 10:17:44;;;;;;;24.15;9.82;;;;;;;;;;4915450;29;20064;-65
2022/02/24 10:20:16;;;;;;;18.45;9.88;;;;;;;;;;4915762;29;20189;-65
2022/02/24 10:22:57;;;;;;;25.77;9.40;;;;;;;;;;4915514;29;20060;-65
2022/02/24 10:25:43;;;;;;;22.80;10.55;;;;;;;;;;4915542;29;20060;-65
2022/02/24 10:28:36;;;;;;;23.98;11.57;;;;;;;;;;4915497;29;20092;-65
2022/02/24 10:31:12;;;;;;;20.92;10.48;;;;;;;;;;4930532;29;20063;-65
2022/02/24 10:33:47;;;;;;;23.50;10.70;;;;;;;;;;4896374;29;20064;-64
2022/02/24 10:36:24;;;;;;;26.20;10.95;;;;;;;;;;4903426;29;20075;-65
2022/02/24 10:39:05;;;;;;;24.58;11.32;;;;;;;;;;4953141;29;20051;-67
2022/02/24 10:41:40;;;;;;;26.00;10.63;;;;;;;;;;4953399;29;20063;-65
2022/02/24 10:44:27;;;;;;;29.30;10.50;;;;;;;;;;4956863;28;20418;-65
2022/02/24 10:47:04;;;;;;;22.25;11.40;;;;;;;;;;4933126;29;20060;-65
2022/02/24 10:49:43;;;;;;;26.30;10.90;;;;;;;;;;4918848;29;20064;-65
2022/02/24 10:52:17;;;;;;;23.15;10.73;;;;;;;;;;4934049;29;20055;-65
2022/02/24 10:55:09;;;;;;;25.83;9.98;;;;;;;;;;4933656;29;20074;-65
2022/02/24 10:57:39;;;;;;;27.05;9.65;;;;;;;;;;4934018;29;20051;-65
2022/02/24 11:00:21;;;;;;;19.70;9.00;;;;;;;;;;4895862;29;20053;-66
2022/02/24 11:02:51;;;;;;;17.73;9.02;;;;;;;;;;4895749;29;20059;-66
2022/02/24 11:05:28;;;;;;;15.23;8.60;;;;;;;;;;4895735;29;20061;-65
2022/02/24 11:07:59;;;;;;;15.82;7.72;;;;;;;;;;4896058;29;20060;-66
2022/02/24 11:10:29;;;;;;;14.55;7.18;;;;;;;;;;4895952;29;20048;-66
2022/02/24 11:13:01;;;;;;;12.27;7.15;;;;;;;;;;4864869;29;20440;-66
2022/02/24 11:15:38;;;;;;;13.50;7.53;;;;;;;;;;4897069;29;20053;-65
2022/02/24 11:18:09;;;;;;;11.40;6.68;;;;;;;;;;4914691;29;20068;-66
2022/02/24 11:20:44;;;;;;;11.32;6.20;;;;;;;;;;4914718;29;20067;-66
2022/02/24 11:23:15;;;;;;;12.18;5.90;;;;;;;;;;4914630;29;20055;-66
2022/02/24 11:26:02;;;;;;;11.73;6.35;;;;;;;;;;4886869;29;20064;-67
2022/02/24 11:28:59;;;;;;;8.98;5.22;;;;;;;;;;4933199;29;20063;-67
2022/02/24 11:31:43;;;;;;;11.32;5.47;;;;;;;;;;4858093;29;20446;-66
2022/02/24 11:34:14;;;;;;;11.25;5.35;;;;;;;;;;4858319;29;20550;-66
2022/02/24 11:36:47;;;;;;;11.35;5.53;;;;;;;;;;4860379;29;20053;-65
2022/02/24 11:39:19;;;;;;;8.52;4.78;;;;;;;;;;4895419;29;20405;-66
2022/02/24 11:41:54;;;;;;;10.68;4.70;;;;;;;;;;4895180;29;20409;-65
2022/02/24 11:44:38;;;;;;;11.10;5.50;;;;;;;;;;4895411;29;20044;-67
2022/02/24 11:47:12;;;;;;;7.07;4.40;;;;;;;;;;4898571;29;20412;-66
2022/02/24 11:49:56;;;;;;;8.10;4.88;;;;;;;;;;4917701;29;20508;-66
2022/02/24 11:52:35;;;;;;;9.23;4.18;;;;;;;;;;4932522;29;20059;-67
2022/02/24 11:55:05;;;;;;;10.07;4.75;;;;;;;;;;4932849;29;20060;-67
2022/02/24 11:57:39;;;;;;;8.40;4.47;;;;;;;;;;4932944;29;20200;-67
2022/02/24 12:00:17;;;;;;;7.28;4.03;;;;;;;;;;4931646;29;20056;-67
2022/02/24 12:02:50;;;;;;;6.78;4.40;;;;;;;;;;4913421;29;20468;-67
2022/02/24 12:05:24;;;;;;;7.25;4.47;;;;;;;;;;4882521;29;20623;-67
2022/02/24 12:08:05;;;;;;;6.57;4.03;;;;;;;;;;4917505;29;20051;-67
2022/02/24 12:10:46;;;;;;;7.45;4.45;;;;;;;;;;4927198;29;20063;-67
2022/02/24 12:13:31;;;;;;;;;;;;;;;;;;4914699;29;20117;-69
2022/02/24 12:16:22;;;;;;;7.45;3.95;;;;;;;;;;4937803;29;19930;-68
2022/02/24 12:18:58;;;;;;;7.07;4.10;;;;;;;;;;4915872;29;20055;-66
2022/02/24 12:21:35;;;;;;;6.97;4.03;;;;;;;;;;4932108;29;20428;-66
2022/02/24 12:24:14;;;;;;;6.95;3.83;;;;;;;;;;4925873;29;20067;-67
2022/02/24 12:26:47;;;;;;;7.18;4.88;;;;;;;;;;4929319;29;20055;-67
2022/02/24 12:29:43;;;;;;;9.00;4.00;;;;;;;;;;4932364;29;20105;-66
2022/02/24 12:32:20;;;;;;;6.75;4.22;;;;;;;;;;4896356;29;20106;-67
2022/02/24 12:34:52;;;;;;;8.63;4.43;;;;;;;;;;4915439;29;20063;-66
2022/02/24 12:37:29;;;;;;;7.72;3.92;;;;;;;;;;4925744;29;20478;-66
2022/02/24 12:40:04;;;;;;;5.80;3.90;;;;;;;;;;4942763;28;20426;-66
2022/02/24 12:42:36;;;;;;;7.18;4.53;;;;;;;;;;4929366;29;20467;-68
2022/02/24 12:45:08;;;;;;;7.40;3.75;;;;;;;;;;4898332;29;20050;-67
2022/02/24 12:47:39;;;;;;;7.88;3.92;;;;;;;;;;4931399;29;20200;-67
2022/02/24 12:50:11;;;;;;;10.57;4.18;;;;;;;;;;4930015;29;20071;-66
2022/02/24 12:52:44;;;;;;;5.97;4.20;;;;;;;;;;4930426;29;20055;-66
2022/02/24 12:55:17;;;;;;;6.55;4.20;;;;;;;;;;4915010;29;20059;-67
2022/02/24 12:57:48;;;;;;;5.47;3.60;;;;;;;;;;4877111;29;20429;-67
2022/02/24 13:00:21;;;;;;;7.35;4.03;;;;;;;;;;4861857;29;20060;-68
2022/02/24 13:02:55;;;;;;;4.88;3.05;;;;;;;;;;4873890;29;20475;-67
2022/02/24 13:05:27;;;;;;;6.85;3.58;;;;;;;;;;4874156;29;20072;-68
2022/02/24 13:11:04;;;;;;;7.43;3.50;;;;;;;;;;4911374;29;20052;-68
2022/02/24 13:13:37;;;;;;;7.60;3.45;;;;;;;;;;4879867;29;20083;-67
2022/02/24 13:16:16;;;;;;;4.40;2.75;;;;;;;;;;4911323;29;20063;-68
2022/02/24 13:18:50;;;;;;;6.25;2.95;;;;;;;;;;4896411;29;20048;-67
2022/02/24 13:21:31;;;;;;;3.90;2.90;;;;;;;;;;4949064;29;20077;-68
2022/02/24 13:24:03;;;;;;;9.10;3.13;;;;;;;;;;4949480;29;20047;-68
2022/02/24 13:26:43;;;;;;;4.18;2.75;;;;;;;;;;4933250;29;20055;-67
2022/02/24 13:29:38;;;;;;;5.82;3.28;;;;;;;;;;4911111;29;20064;-66
2022/02/24 13:32:16;;;;;;;6.68;3.08;;;;;;;;;;4911413;29;20047;-68
2022/02/24 13:34:56;;;;;;;6.70;3.50;;;;;;;;;;4914995;29;20324;-68
2022/02/24 13:37:50;;;;;;;6.47;2.30;;;;;;;;;;4945777;29;20055;-67
2022/02/24 13:40:28;;;;;;;3.30;1.65;;;;;;;;;;4960544;28;20050;-68
2022/02/24 13:43:02;;;;;;;6.55;1.70;;;;;;;;;;4955216;28;20103;-68
2022/02/24 13:45:34;;;;;;;3.33;1.30;;;;;;;;;;4954978;28;20058;-75
2022/02/24 13:48:12;;;;;;;3.08;1.33;;;;;;;;;;4955874;28;20065;-69
2022/02/24 13:50:48;;;;;;;5.13;1.30;;;;;;;;;;4930955;28;20054;-72
2022/02/24 13:53:30;;;;;;;5.60;1.67;;;;;;;;;;4986541;28;20059;-77
2022/02/24 13:56:08;;;;;;;2.97;1.10;;;;;;;;;;4985931;28;20046;-71
2022/02/24 13:58:44;;;;;;;2.35;1.30;;;;;;;;;;4947865;28;20525;-71
2022/02/24 14:01:18;;;;;;;2.92;1.40;;;;;;;;;;4964913;28;20651;-72
2022/02/24 14:03:52;;;;;;;2.47;1.25;;;;;;;;;;4987360;28;20797;-73
2022/02/24 14:06:27;;;;;;;5.28;1.52;;;;;;;;;;4967418;28;20054;-69
2022/02/24 14:08:58;;;;;;;3.65;1.17;;;;;;;;;;4968737;28;20054;-76
2022/02/24 14:11:30;;;;;;;2.40;1.23;;;;;;;;;;4963535;28;20071;-72
2022/02/24 14:14:05;;;;;;;2.90;1.20;;;;;;;;;;4952683;28;20851;-74
2022/02/24 14:16:40;;;;;;;3.47;1.35;;;;;;;;;;4957296;28;20095;-74
2022/02/24 14:19:13;;;;;;;9.18;1.13;;;;;;;;;;4978138;28;20182;-73
2022/02/24 14:21:44;;;;;;;2.15;1.15;;;;;;;;;;4949865;28;20066;-73
2022/02/24 14:24:16;;;;;;;2.55;1.02;;;;;;;;;;4951138;28;20497;-68
2022/02/24 14:26:51;;;;;;;4.32;1.45;;;;;;;;;;4951729;28;20518;-76
2022/02/24 14:29:22;;;;;;;1.85;1.10;;;;;;;;;;4915515;28;20450;-76
2022/02/24 14:31:53;;;;;;;3.70;1.20;;;;;;;;;;4971181;28;20067;-78
2022/02/24 14:34:24;;;;;;;4.32;1.23;;;;;;;;;;4955291;28;20047;-76
2022/02/24 14:36:56;;;;;;;6.18;1.20;;;;;;;;;;4984692;28;20050;-75
2022/02/24 14:39:29;;;;;;;3.00;1.13;;;;;;;;;;4958914;28;20054;-72
2022/02/24 14:42:00;;;;;;;4.47;1.02;;;;;;;;;;4990771;28;20065;-74
2022/02/24 14:44:31;;;;;;;2.60;1.17;;;;;;;;;;4927900;28;20089;-76
2022/02/24 14:47:03;;;;;;;4.70;1.15;;;;;;;;;;4991052;28;20090;-69
2022/02/24 14:49:35;;;;;;;2.88;1.33;;;;;;;;;;4990705;28;20054;-75
2022/02/24 14:52:07;;;;;;;4.05;1.73;;;;;;;;;;4991284;28;20058;-70
2022/02/24 14:54:41;;;;;;;2.75;1.30;;;;;;;;;;4993568;28;20060;-75
2022/02/24 14:57:15;;;;;;;4.32;1.25;;;;;;;;;;4993016;28;20058;-72
2022/02/24 14:59:46;;;;;;;2.45;1.25;;;;;;;;;;4952915;29;20050;-73
2022/02/24 15:02:17;;;;;;;2.50;1.00;;;;;;;;;;4953262;29;20059;-75
2022/02/24 15:05:09;;;;;;;2.33;1.15;;;;;;;;;;4949556;28;20064;-76
2022/02/24 15:07:44;;;;;;;5.30;1.42;;;;;;;;;;4957593;28;20051;-76